sensor_id;sensor_type;location;lat;lon;timestamp;P1;durP1;ratioP1;P2;durP2;ratioP2
62338;SDS011;48368;53.406;6.214;2023-07-29T00:01:51;8.02;;;5.32;;
62338;SDS011;48368;53.406;6.214;2023-07-29T00:04:18;9.10;;;5.03;;
62338;SDS011;48368;53.406;6.214;2023-07-29T00:06:45;7.90;;;4.90;;
62338;SDS011;48368;53.406;6.214;2023-07-29T00:09:11;7.57;;;4.20;;
62338;SDS011;48368;53.406;6.214;2023-07-29T00:11:37;7.32;;;4.32;;
62338;SDS011;48368;53.406;6.214;2023-07-29T00:14:03;8.50;;;4.22;;
62338;SDS011;48368;53.406;6.214;2023-07-29T00:16:29;6.50;;;3.80;;
62338;SDS011;48368;53.406;6.214;2023-07-29T00:18:55;9.05;;;4.00;;
62338;SDS011;48368;53.406;6.214;2023-07-29T00:21:20;7.53;;;3.70;;
62338;SDS011;48368;53.406;6.214;2023-07-29T00:23:46;7.30;;;4.32;;
62338;SDS011;48368;53.406;6.214;2023-07-29T00:26:12;8.90;;;4.22;;
62338;SDS011;48368;53.406;6.214;2023-07-29T00:28:37;7.53;;;3.70;;
62338;SDS011;48368;53.406;6.214;2023-07-29T00:31:03;9.32;;;4.10;;
62338;SDS011;48368;53.406;6.214;2023-07-29T00:33:28;9.98;;;4.43;;
62338;SDS011;48368;53.406;6.214;2023-07-29T00:35:54;9.02;;;3.67;;
62338;SDS011;48368;53.406;6.214;2023-07-29T00:38:20;7.53;;;4.32;;
62338;SDS011;48368;53.406;6.214;2023-07-29T00:40:45;7.18;;;4.50;;
62338;SDS011;48368;53.406;6.214;2023-07-29T00:43:11;9.63;;;4.82;;
62338;SDS011;48368;53.406;6.214;2023-07-29T00:45:37;9.23;;;5.05;;
62338;SDS011;48368;53.406;6.214;2023-07-29T00:48:03;8.20;;;4.78;;
62338;SDS011;48368;53.406;6.214;2023-07-29T00:50:30;8.30;;;4.75;;
62338;SDS011;48368;53.406;6.214;2023-07-29T00:52:57;8.88;;;4.75;;
62338;SDS011;48368;53.406;6.214;2023-07-29T00:55:23;10.23;;;5.43;;
62338;SDS011;48368;53.406;6.214;2023-07-29T00:57:49;7.43;;;5.10;;
62338;SDS011;48368;53.406;6.214;2023-07-29T01:00:18;9.95;;;5.45;;
62338;SDS011;48368;53.406;6.214;2023-07-29T01:02:44;9.85;;;5.90;;
62338;SDS011;48368;53.406;6.214;2023-07-29T01:05:11;10.68;;;5.60;;
62338;SDS011;48368;53.406;6.214;2023-07-29T01:10:25;10.52;;;5.97;;
62338;SDS011;48368;53.406;6.214;2023-07-29T01:15:58;12.10;;;5.65;;
62338;SDS011;48368;53.406;6.214;2023-07-29T01:18:28;11.95;;;6.38;;
62338;SDS011;48368;53.406;6.214;2023-07-29T01:21:00;10.13;;;5.75;;
62338;SDS011;48368;53.406;6.214;2023-07-29T01:23:30;9.80;;;5.53;;
62338;SDS011;48368;53.406;6.214;2023-07-29T01:25:56;10.45;;;5.05;;
62338;SDS011;48368;53.406;6.214;2023-07-29T01:28:22;15.40;;;6.10;;
62338;SDS011;48368;53.406;6.214;2023-07-29T01:30:49;9.52;;;5.70;;
62338;SDS011;48368;53.406;6.214;2023-07-29T01:33:17;11.52;;;6.32;;
62338;SDS011;48368;53.406;6.214;2023-07-29T01:35:52;11.43;;;5.57;;
62338;SDS011;48368;53.406;6.214;2023-07-29T01:38:33;9.98;;;6.40;;
62338;SDS011;48368;53.406;6.214;2023-07-29T01:41:01;12.02;;;6.60;;
62338;SDS011;48368;53.406;6.214;2023-07-29T01:43:29;12.18;;;6.93;;
62338;SDS011;48368;53.406;6.214;2023-07-29T01:45:55;10.15;;;6.32;;
62338;SDS011;48368;53.406;6.214;2023-07-29T01:48:21;11.52;;;6.50;;
62338;SDS011;48368;53.406;6.214;2023-07-29T01:50:46;10.95;;;5.82;;
62338;SDS011;48368;53.406;6.214;2023-07-29T01:53:12;11.00;;;6.28;;
62338;SDS011;48368;53.406;6.214;2023-07-29T01:55:38;9.55;;;5.57;;
62338;SDS011;48368;53.406;6.214;2023-07-29T01:58:04;11.25;;;6.45;;
62338;SDS011;48368;53.406;6.214;2023-07-29T02:00:31;11.13;;;6.53;;
62338;SDS011;48368;53.406;6.214;2023-07-29T02:02:57;11.93;;;6.50;;
62338;SDS011;48368;53.406;6.214;2023-07-29T02:05:23;9.77;;;5.65;;
62338;SDS011;48368;53.406;6.214;2023-07-29T02:07:48;9.82;;;6.22;;
62338;SDS011;48368;53.406;6.214;2023-07-29T02:10:14;12.07;;;6.70;;
62338;SDS011;48368;53.406;6.214;2023-07-29T02:12:40;13.25;;;7.13;;
62338;SDS011;48368;53.406;6.214;2023-07-29T02:15:06;14.07;;;7.18;;
62338;SDS011;48368;53.406;6.214;2023-07-29T02:17:32;10.43;;;6.60;;
62338;SDS011;48368;53.406;6.214;2023-07-29T02:19:57;11.80;;;6.65;;
62338;SDS011;48368;53.406;6.214;2023-07-29T02:22:23;13.70;;;7.40;;
62338;SDS011;48368;53.406;6.214;2023-07-29T02:24:48;14.35;;;7.05;;
62338;SDS011;48368;53.406;6.214;2023-07-29T02:27:14;13.85;;;7.80;;
62338;SDS011;48368;53.406;6.214;2023-07-29T02:29:40;14.32;;;8.52;;
62338;SDS011;48368;53.406;6.214;2023-07-29T02:32:05;13.68;;;8.32;;
62338;SDS011;48368;53.406;6.214;2023-07-29T02:34:31;14.65;;;8.57;;
62338;SDS011;48368;53.406;6.214;2023-07-29T02:36:59;13.90;;;8.57;;
62338;SDS011;48368;53.406;6.214;2023-07-29T02:39:25;14.30;;;8.52;;
62338;SDS011;48368;53.406;6.214;2023-07-29T02:41:50;13.05;;;7.93;;
62338;SDS011;48368;53.406;6.214;2023-07-29T02:44:19;15.73;;;9.45;;
62338;SDS011;48368;53.406;6.214;2023-07-29T02:46:47;14.27;;;8.63;;
62338;SDS011;48368;53.406;6.214;2023-07-29T02:49:13;13.38;;;7.88;;
62338;SDS011;48368;53.406;6.214;2023-07-29T02:51:39;13.10;;;7.97;;
62338;SDS011;48368;53.406;6.214;2023-07-29T02:54:04;14.60;;;8.27;;
62338;SDS011;48368;53.406;6.214;2023-07-29T02:56:30;11.43;;;7.30;;
62338;SDS011;48368;53.406;6.214;2023-07-29T02:58:56;11.68;;;7.32;;
62338;SDS011;48368;53.406;6.214;2023-07-29T03:01:22;11.35;;;7.38;;
62338;SDS011;48368;53.406;6.214;2023-07-29T03:03:52;14.48;;;7.57;;
62338;SDS011;48368;53.406;6.214;2023-07-29T03:06:18;12.10;;;7.18;;
62338;SDS011;48368;53.406;6.214;2023-07-29T03:08:44;11.98;;;6.93;;
62338;SDS011;48368;53.406;6.214;2023-07-29T03:11:10;11.43;;;6.78;;
62338;SDS011;48368;53.406;6.214;2023-07-29T03:13:37;12.13;;;6.55;;
62338;SDS011;48368;53.406;6.214;2023-07-29T03:16:13;10.73;;;7.00;;
62338;SDS011;48368;53.406;6.214;2023-07-29T03:18:41;15.50;;;7.53;;
62338;SDS011;48368;53.406;6.214;2023-07-29T03:21:08;13.52;;;8.18;;
62338;SDS011;48368;53.406;6.214;2023-07-29T03:23:34;16.08;;;9.13;;
62338;SDS011;48368;53.406;6.214;2023-07-29T03:26:01;15.63;;;9.38;;
62338;SDS011;48368;53.406;6.214;2023-07-29T03:28:30;15.63;;;9.35;;
62338;SDS011;48368;53.406;6.214;2023-07-29T03:30:57;15.65;;;9.07;;
62338;SDS011;48368;53.406;6.214;2023-07-29T03:33:24;15.50;;;8.98;;
62338;SDS011;48368;53.406;6.214;2023-07-29T03:35:50;16.60;;;9.35;;
62338;SDS011;48368;53.406;6.214;2023-07-29T03:38:16;15.65;;;9.30;;
62338;SDS011;48368;53.406;6.214;2023-07-29T03:40:42;12.68;;;9.38;;
62338;SDS011;48368;53.406;6.214;2023-07-29T03:43:08;14.80;;;8.85;;
62338;SDS011;48368;53.406;6.214;2023-07-29T03:45:34;15.18;;;9.35;;
62338;SDS011;48368;53.406;6.214;2023-07-29T03:48:01;13.10;;;8.93;;
62338;SDS011;48368;53.406;6.214;2023-07-29T03:50:27;12.57;;;7.80;;
62338;SDS011;48368;53.406;6.214;2023-07-29T03:52:54;12.52;;;8.45;;
62338;SDS011;48368;53.406;6.214;2023-07-29T03:55:20;11.60;;;7.53;;
62338;SDS011;48368;53.406;6.214;2023-07-29T03:57:46;13.68;;;7.72;;
62338;SDS011;48368;53.406;6.214;2023-07-29T04:00:14;13.13;;;7.50;;
62338;SDS011;48368;53.406;6.214;2023-07-29T04:02:49;12.45;;;6.35;;
62338;SDS011;48368;53.406;6.214;2023-07-29T04:05:14;9.30;;;5.80;;
62338;SDS011;48368;53.406;6.214;2023-07-29T04:07:43;12.85;;;6.00;;
62338;SDS011;48368;53.406;6.214;2023-07-29T04:10:11;11.43;;;6.05;;
62338;SDS011;48368;53.406;6.214;2023-07-29T04:12:37;10.20;;;5.47;;
62338;SDS011;48368;53.406;6.214;2023-07-29T04:15:03;12.48;;;5.05;;
62338;SDS011;48368;53.406;6.214;2023-07-29T04:17:38;10.63;;;5.38;;
62338;SDS011;48368;53.406;6.214;2023-07-29T04:20:04;7.95;;;4.03;;
62338;SDS011;48368;53.406;6.214;2023-07-29T04:22:30;8.98;;;4.53;;
62338;SDS011;48368;53.406;6.214;2023-07-29T04:24:55;7.95;;;4.15;;
62338;SDS011;48368;53.406;6.214;2023-07-29T04:27:38;8.77;;;4.45;;
62338;SDS011;48368;53.406;6.214;2023-07-29T04:30:03;9.98;;;4.97;;
62338;SDS011;48368;53.406;6.214;2023-07-29T04:32:38;10.52;;;4.18;;
62338;SDS011;48368;53.406;6.214;2023-07-29T04:35:13;10.57;;;4.88;;
62338;SDS011;48368;53.406;6.214;2023-07-29T04:37:39;11.38;;;4.28;;
62338;SDS011;48368;53.406;6.214;2023-07-29T04:40:05;12.82;;;4.18;;
62338;SDS011;48368;53.406;6.214;2023-07-29T04:42:34;10.55;;;4.03;;
62338;SDS011;48368;53.406;6.214;2023-07-29T04:45:01;9.82;;;4.18;;
62338;SDS011;48368;53.406;6.214;2023-07-29T04:47:27;8.15;;;4.22;;
62338;SDS011;48368;53.406;6.214;2023-07-29T04:49:53;8.02;;;3.88;;
62338;SDS011;48368;53.406;6.214;2023-07-29T04:52:19;8.77;;;3.90;;
62338;SDS011;48368;53.406;6.214;2023-07-29T04:54:47;8.38;;;4.00;;
62338;SDS011;48368;53.406;6.214;2023-07-29T04:57:13;7.72;;;3.65;;
62338;SDS011;48368;53.406;6.214;2023-07-29T04:59:39;9.45;;;3.42;;
62338;SDS011;48368;53.406;6.214;2023-07-29T05:02:05;9.13;;;3.60;;
62338;SDS011;48368;53.406;6.214;2023-07-29T05:04:31;6.78;;;3.38;;
62338;SDS011;48368;53.406;6.214;2023-07-29T05:06:56;8.27;;;3.85;;
62338;SDS011;48368;53.406;6.214;2023-07-29T05:09:22;10.85;;;3.95;;
62338;SDS011;48368;53.406;6.214;2023-07-29T05:11:48;9.05;;;4.28;;
62338;SDS011;48368;53.406;6.214;2023-07-29T05:14:15;8.93;;;3.88;;
62338;SDS011;48368;53.406;6.214;2023-07-29T05:16:41;11.05;;;3.55;;
62338;SDS011;48368;53.406;6.214;2023-07-29T05:19:07;11.07;;;3.90;;
62338;SDS011;48368;53.406;6.214;2023-07-29T05:21:33;10.20;;;4.50;;
62338;SDS011;48368;53.406;6.214;2023-07-29T05:23:59;6.93;;;3.70;;
62338;SDS011;48368;53.406;6.214;2023-07-29T05:26:25;11.90;;;4.43;;
62338;SDS011;48368;53.406;6.214;2023-07-29T05:28:50;9.75;;;3.63;;
62338;SDS011;48368;53.406;6.214;2023-07-29T05:31:16;8.75;;;3.50;;
62338;SDS011;48368;53.406;6.214;2023-07-29T05:33:42;7.10;;;3.00;;
62338;SDS011;48368;53.406;6.214;2023-07-29T05:36:08;6.43;;;3.15;;
62338;SDS011;48368;53.406;6.214;2023-07-29T05:38:34;10.20;;;3.08;;
62338;SDS011;48368;53.406;6.214;2023-07-29T05:43:32;9.70;;;2.72;;
62338;SDS011;48368;53.406;6.214;2023-07-29T05:45:58;6.28;;;2.47;;
62338;SDS011;48368;53.406;6.214;2023-07-29T05:48:23;11.48;;;3.00;;
62338;SDS011;48368;53.406;6.214;2023-07-29T05:50:49;11.07;;;3.05;;
62338;SDS011;48368;53.406;6.214;2023-07-29T05:53:15;7.10;;;2.60;;
62338;SDS011;48368;53.406;6.214;2023-07-29T05:55:41;7.05;;;2.60;;
62338;SDS011;48368;53.406;6.214;2023-07-29T05:58:06;9.20;;;3.13;;
62338;SDS011;48368;53.406;6.214;2023-07-29T06:00:33;8.45;;;2.67;;
62338;SDS011;48368;53.406;6.214;2023-07-29T06:03:00;6.47;;;3.08;;
62338;SDS011;48368;53.406;6.214;2023-07-29T06:05:25;7.65;;;2.92;;
62338;SDS011;48368;53.406;6.214;2023-07-29T06:07:51;8.57;;;3.00;;
62338;SDS011;48368;53.406;6.214;2023-07-29T06:10:16;7.10;;;2.72;;
62338;SDS011;48368;53.406;6.214;2023-07-29T06:12:45;7.07;;;2.67;;
62338;SDS011;48368;53.406;6.214;2023-07-29T06:15:11;9.95;;;2.92;;
62338;SDS011;48368;53.406;6.214;2023-07-29T06:17:40;7.82;;;2.72;;
62338;SDS011;48368;53.406;6.214;2023-07-29T06:20:06;7.75;;;2.65;;
62338;SDS011;48368;53.406;6.214;2023-07-29T06:22:34;7.82;;;3.20;;
62338;SDS011;48368;53.406;6.214;2023-07-29T06:25:03;9.50;;;3.20;;
62338;SDS011;48368;53.406;6.214;2023-07-29T06:27:29;8.32;;;2.78;;
62338;SDS011;48368;53.406;6.214;2023-07-29T06:29:54;9.80;;;3.38;;
62338;SDS011;48368;53.406;6.214;2023-07-29T06:32:20;10.27;;;3.45;;
62338;SDS011;48368;53.406;6.214;2023-07-29T06:34:46;11.13;;;3.05;;
62338;SDS011;48368;53.406;6.214;2023-07-29T06:37:11;10.13;;;3.25;;
62338;SDS011;48368;53.406;6.214;2023-07-29T06:39:37;8.25;;;3.00;;
62338;SDS011;48368;53.406;6.214;2023-07-29T06:42:03;10.57;;;2.92;;
62338;SDS011;48368;53.406;6.214;2023-07-29T06:44:28;7.95;;;2.90;;
62338;SDS011;48368;53.406;6.214;2023-07-29T06:46:54;9.32;;;3.90;;
62338;SDS011;48368;53.406;6.214;2023-07-29T06:49:20;6.75;;;3.17;;
62338;SDS011;48368;53.406;6.214;2023-07-29T06:51:45;7.05;;;3.10;;
62338;SDS011;48368;53.406;6.214;2023-07-29T06:54:11;8.07;;;2.85;;
62338;SDS011;48368;53.406;6.214;2023-07-29T06:56:36;12.38;;;3.75;;
62338;SDS011;48368;53.406;6.214;2023-07-29T06:59:02;14.60;;;4.03;;
62338;SDS011;48368;53.406;6.214;2023-07-29T07:01:28;6.38;;;3.08;;
62338;SDS011;48368;53.406;6.214;2023-07-29T07:03:53;9.77;;;3.65;;
62338;SDS011;48368;53.406;6.214;2023-07-29T07:06:20;7.45;;;3.33;;
62338;SDS011;48368;53.406;6.214;2023-07-29T07:08:47;11.43;;;3.88;;
62338;SDS011;48368;53.406;6.214;2023-07-29T07:11:12;9.05;;;3.60;;
62338;SDS011;48368;53.406;6.214;2023-07-29T07:13:38;11.10;;;4.00;;
62338;SDS011;48368;53.406;6.214;2023-07-29T07:16:04;10.40;;;4.47;;
62338;SDS011;48368;53.406;6.214;2023-07-29T07:18:29;9.43;;;3.92;;
62338;SDS011;48368;53.406;6.214;2023-07-29T07:20:55;10.63;;;3.88;;
62338;SDS011;48368;53.406;6.214;2023-07-29T07:23:21;9.93;;;3.95;;
62338;SDS011;48368;53.406;6.214;2023-07-29T07:25:46;7.95;;;3.70;;
62338;SDS011;48368;53.406;6.214;2023-07-29T07:28:12;7.72;;;3.40;;
62338;SDS011;48368;53.406;6.214;2023-07-29T07:30:40;10.93;;;3.88;;
62338;SDS011;48368;53.406;6.214;2023-07-29T07:33:06;11.32;;;4.43;;
62338;SDS011;48368;53.406;6.214;2023-07-29T07:35:32;10.07;;;3.88;;
62338;SDS011;48368;53.406;6.214;2023-07-29T07:37:58;7.50;;;3.47;;
62338;SDS011;48368;53.406;6.214;2023-07-29T07:40:26;8.02;;;3.92;;
62338;SDS011;48368;53.406;6.214;2023-07-29T07:42:52;9.13;;;4.18;;
62338;SDS011;48368;53.406;6.214;2023-07-29T07:45:18;5.95;;;3.80;;
62338;SDS011;48368;53.406;6.214;2023-07-29T07:47:44;8.40;;;3.83;;
62338;SDS011;48368;53.406;6.214;2023-07-29T07:50:09;7.55;;;3.80;;
62338;SDS011;48368;53.406;6.214;2023-07-29T07:52:35;7.70;;;3.60;;
62338;SDS011;48368;53.406;6.214;2023-07-29T07:55:00;8.95;;;3.55;;
62338;SDS011;48368;53.406;6.214;2023-07-29T07:57:26;9.88;;;3.72;;
62338;SDS011;48368;53.406;6.214;2023-07-29T07:59:53;7.05;;;3.85;;
62338;SDS011;48368;53.406;6.214;2023-07-29T08:02:18;6.13;;;2.83;;
62338;SDS011;48368;53.406;6.214;2023-07-29T08:04:45;9.18;;;3.60;;
62338;SDS011;48368;53.406;6.214;2023-07-29T08:07:11;8.00;;;3.60;;
62338;SDS011;48368;53.406;6.214;2023-07-29T08:09:36;7.68;;;3.40;;
62338;SDS011;48368;53.406;6.214;2023-07-29T08:12:02;8.85;;;3.80;;
62338;SDS011;48368;53.406;6.214;2023-07-29T08:14:28;10.30;;;3.60;;
62338;SDS011;48368;53.406;6.214;2023-07-29T08:16:57;6.55;;;3.38;;
62338;SDS011;48368;53.406;6.214;2023-07-29T08:19:22;7.13;;;3.05;;
62338;SDS011;48368;53.406;6.214;2023-07-29T08:21:51;8.90;;;3.20;;
62338;SDS011;48368;53.406;6.214;2023-07-29T08:24:22;8.13;;;3.08;;
62338;SDS011;48368;53.406;6.214;2023-07-29T08:26:48;8.23;;;3.08;;
62338;SDS011;48368;53.406;6.214;2023-07-29T08:29:13;7.13;;;2.92;;
62338;SDS011;48368;53.406;6.214;2023-07-29T08:31:39;9.07;;;3.05;;
62338;SDS011;48368;53.406;6.214;2023-07-29T08:34:05;8.98;;;3.03;;
62338;SDS011;48368;53.406;6.214;2023-07-29T08:36:30;7.38;;;2.60;;
62338;SDS011;48368;53.406;6.214;2023-07-29T08:38:56;7.95;;;3.05;;
62338;SDS011;48368;53.406;6.214;2023-07-29T08:41:26;8.70;;;2.90;;
62338;SDS011;48368;53.406;6.214;2023-07-29T08:46:34;6.15;;;2.53;;
62338;SDS011;48368;53.406;6.214;2023-07-29T08:49:00;6.53;;;2.63;;
62338;SDS011;48368;53.406;6.214;2023-07-29T08:51:48;5.88;;;2.30;;
62338;SDS011;48368;53.406;6.214;2023-07-29T08:54:14;8.63;;;2.45;;
62338;SDS011;48368;53.406;6.214;2023-07-29T08:56:50;6.90;;;2.53;;
62338;SDS011;48368;53.406;6.214;2023-07-29T08:59:25;5.53;;;2.08;;
62338;SDS011;48368;53.406;6.214;2023-07-29T09:01:53;6.38;;;3.03;;
62338;SDS011;48368;53.406;6.214;2023-07-29T09:04:38;5.53;;;2.10;;
62338;SDS011;48368;53.406;6.214;2023-07-29T09:07:04;7.47;;;2.45;;
62338;SDS011;48368;53.406;6.214;2023-07-29T09:09:34;7.45;;;2.40;;
62338;SDS011;48368;53.406;6.214;2023-07-29T09:12:08;5.50;;;2.17;;
62338;SDS011;48368;53.406;6.214;2023-07-29T09:14:36;7.32;;;2.20;;
62338;SDS011;48368;53.406;6.214;2023-07-29T09:17:09;8.35;;;2.50;;
62338;SDS011;48368;53.406;6.214;2023-07-29T09:19:35;6.28;;;2.00;;
62338;SDS011;48368;53.406;6.214;2023-07-29T09:22:01;6.82;;;2.05;;
62338;SDS011;48368;53.406;6.214;2023-07-29T09:24:30;6.15;;;2.08;;
62338;SDS011;48368;53.406;6.214;2023-07-29T09:27:06;5.43;;;2.22;;
62338;SDS011;48368;53.406;6.214;2023-07-29T09:29:35;8.68;;;2.42;;
62338;SDS011;48368;53.406;6.214;2023-07-29T09:34:51;6.60;;;2.13;;
62338;SDS011;48368;53.406;6.214;2023-07-29T09:37:21;5.32;;;1.48;;
62338;SDS011;48368;53.406;6.214;2023-07-29T09:39:48;5.60;;;1.90;;
62338;SDS011;48368;53.406;6.214;2023-07-29T09:42:33;4.95;;;1.45;;
62338;SDS011;48368;53.406;6.214;2023-07-29T09:44:58;4.90;;;2.40;;
62338;SDS011;48368;53.406;6.214;2023-07-29T09:47:24;4.45;;;1.65;;
62338;SDS011;48368;53.406;6.214;2023-07-29T09:49:51;4.30;;;1.88;;
62338;SDS011;48368;53.406;6.214;2023-07-29T09:52:21;5.15;;;1.90;;
62338;SDS011;48368;53.406;6.214;2023-07-29T09:54:48;8.55;;;1.98;;
62338;SDS011;48368;53.406;6.214;2023-07-29T09:57:14;5.55;;;1.80;;
62338;SDS011;48368;53.406;6.214;2023-07-29T09:59:41;4.43;;;1.52;;
62338;SDS011;48368;53.406;6.214;2023-07-29T10:02:08;5.95;;;1.88;;
62338;SDS011;48368;53.406;6.214;2023-07-29T10:04:41;5.07;;;1.83;;
62338;SDS011;48368;53.406;6.214;2023-07-29T10:07:09;3.90;;;1.40;;
62338;SDS011;48368;53.406;6.214;2023-07-29T10:09:36;4.43;;;1.45;;
62338;SDS011;48368;53.406;6.214;2023-07-29T10:12:05;4.90;;;1.60;;
62338;SDS011;48368;53.406;6.214;2023-07-29T10:14:33;3.60;;;1.38;;
62338;SDS011;48368;53.406;6.214;2023-07-29T10:16:59;4.57;;;1.40;;
62338;SDS011;48368;53.406;6.214;2023-07-29T10:19:25;3.97;;;1.38;;
62338;SDS011;48368;53.406;6.214;2023-07-29T10:21:52;3.90;;;1.60;;
62338;SDS011;48368;53.406;6.214;2023-07-29T10:24:22;4.25;;;1.35;;
62338;SDS011;48368;53.406;6.214;2023-07-29T10:26:58;5.63;;;1.30;;
62338;SDS011;48368;53.406;6.214;2023-07-29T10:29:25;3.45;;;1.20;;
62338;SDS011;48368;53.406;6.214;2023-07-29T10:31:55;3.60;;;1.38;;
62338;SDS011;48368;53.406;6.214;2023-07-29T10:34:22;4.18;;;1.40;;
62338;SDS011;48368;53.406;6.214;2023-07-29T10:36:49;3.33;;;1.38;;
62338;SDS011;48368;53.406;6.214;2023-07-29T10:39:17;2.83;;;1.15;;
62338;SDS011;48368;53.406;6.214;2023-07-29T10:41:55;4.10;;;1.30;;
62338;SDS011;48368;53.406;6.214;2023-07-29T10:45:05;3.78;;;1.38;;
62338;SDS011;48368;53.406;6.214;2023-07-29T10:47:21;3.90;;;1.15;;
62338;SDS011;48368;53.406;6.214;2023-07-29T10:49:55;4.32;;;1.27;;
62338;SDS011;48368;53.406;6.214;2023-07-29T10:55:03;2.15;;;1.10;;
62338;SDS011;48368;53.406;6.214;2023-07-29T10:57:47;3.47;;;1.40;;
62338;SDS011;48368;53.406;6.214;2023-07-29T11:00:18;6.88;;;1.98;;
62338;SDS011;48368;53.406;6.214;2023-07-29T11:05:53;6.43;;;2.00;;
62338;SDS011;48368;53.406;6.214;2023-07-29T11:11:15;5.63;;;1.73;;
62338;SDS011;48368;53.406;6.214;2023-07-29T11:13:41;4.57;;;1.60;;
62338;SDS011;48368;53.406;6.214;2023-07-29T11:16:09;5.07;;;2.20;;
62338;SDS011;48368;53.406;6.214;2023-07-29T11:18:36;6.78;;;2.00;;
62338;SDS011;48368;53.406;6.214;2023-07-29T11:21:03;4.97;;;1.90;;
62338;SDS011;48368;53.406;6.214;2023-07-29T11:26:00;4.05;;;1.67;;
62338;SDS011;48368;53.406;6.214;2023-07-29T11:28:27;4.35;;;1.50;;
62338;SDS011;48368;53.406;6.214;2023-07-29T11:30:54;4.95;;;1.65;;
62338;SDS011;48368;53.406;6.214;2023-07-29T11:33:23;4.13;;;1.48;;
62338;SDS011;48368;53.406;6.214;2023-07-29T11:35:51;5.40;;;2.00;;
62338;SDS011;48368;53.406;6.214;2023-07-29T11:38:18;4.30;;;1.40;;
62338;SDS011;48368;53.406;6.214;2023-07-29T11:41:01;5.28;;;1.35;;
62338;SDS011;48368;53.406;6.214;2023-07-29T11:43:34;4.35;;;1.50;;
62338;SDS011;48368;53.406;6.214;2023-07-29T11:46:01;3.75;;;1.55;;
62338;SDS011;48368;53.406;6.214;2023-07-29T11:48:27;4.78;;;1.75;;
62338;SDS011;48368;53.406;6.214;2023-07-29T11:50:56;4.10;;;1.60;;
62338;SDS011;48368;53.406;6.214;2023-07-29T11:53:22;5.30;;;1.60;;
62338;SDS011;48368;53.406;6.214;2023-07-29T11:55:51;4.78;;;1.40;;
62338;SDS011;48368;53.406;6.214;2023-07-29T11:58:18;2.78;;;0.90;;
62338;SDS011;48368;53.406;6.214;2023-07-29T12:00:43;3.60;;;1.20;;
62338;SDS011;48368;53.406;6.214;2023-07-29T12:03:09;2.65;;;1.25;;
62338;SDS011;48368;53.406;6.214;2023-07-29T12:05:37;3.40;;;1.20;;
62338;SDS011;48368;53.406;6.214;2023-07-29T12:08:02;3.70;;;1.38;;
62338;SDS011;48368;53.406;6.214;2023-07-29T12:10:28;5.38;;;1.10;;
62338;SDS011;48368;53.406;6.214;2023-07-29T12:12:56;5.05;;;1.40;;
62338;SDS011;48368;53.406;6.214;2023-07-29T12:15:23;4.35;;;1.80;;
62338;SDS011;48368;53.406;6.214;2023-07-29T12:17:53;4.45;;;1.40;;
62338;SDS011;48368;53.406;6.214;2023-07-29T12:20:23;5.93;;;1.77;;
62338;SDS011;48368;53.406;6.214;2023-07-29T12:22:55;5.10;;;1.20;;
62338;SDS011;48368;53.406;6.214;2023-07-29T12:25:22;4.57;;;1.30;;
62338;SDS011;48368;53.406;6.214;2023-07-29T12:28:02;5.82;;;1.50;;
62338;SDS011;48368;53.406;6.214;2023-07-29T12:30:31;5.90;;;1.55;;
62338;SDS011;48368;53.406;6.214;2023-07-29T12:32:57;4.93;;;1.50;;
62338;SDS011;48368;53.406;6.214;2023-07-29T12:35:23;4.70;;;1.67;;
62338;SDS011;48368;53.406;6.214;2023-07-29T12:37:59;5.75;;;1.80;;
62338;SDS011;48368;53.406;6.214;2023-07-29T12:40:25;7.75;;;1.55;;
62338;SDS011;48368;53.406;6.214;2023-07-29T12:42:51;6.35;;;1.67;;
62338;SDS011;48368;53.406;6.214;2023-07-29T12:45:18;7.70;;;1.63;;
62338;SDS011;48368;53.406;6.214;2023-07-29T12:47:44;2.70;;;1.30;;
62338;SDS011;48368;53.406;6.214;2023-07-29T12:50:10;3.47;;;1.38;;
62338;SDS011;48368;53.406;6.214;2023-07-29T12:52:36;3.88;;;1.23;;
62338;SDS011;48368;53.406;6.214;2023-07-29T12:55:01;4.43;;;1.50;;
62338;SDS011;48368;53.406;6.214;2023-07-29T12:57:30;4.20;;;1.48;;
62338;SDS011;48368;53.406;6.214;2023-07-29T12:59:55;5.28;;;1.40;;
62338;SDS011;48368;53.406;6.214;2023-07-29T13:02:21;6.72;;;1.58;;
62338;SDS011;48368;53.406;6.214;2023-07-29T13:04:47;4.53;;;1.40;;
62338;SDS011;48368;53.406;6.214;2023-07-29T13:07:12;4.78;;;1.55;;
62338;SDS011;48368;53.406;6.214;2023-07-29T13:09:38;5.28;;;1.70;;
62338;SDS011;48368;53.406;6.214;2023-07-29T13:12:04;5.55;;;1.58;;
62338;SDS011;48368;53.406;6.214;2023-07-29T13:14:30;3.78;;;1.50;;
62338;SDS011;48368;53.406;6.214;2023-07-29T13:16:56;6.13;;;1.95;;
62338;SDS011;48368;53.406;6.214;2023-07-29T13:19:22;7.03;;;2.00;;
62338;SDS011;48368;53.406;6.214;2023-07-29T13:21:47;5.10;;;1.55;;
62338;SDS011;48368;53.406;6.214;2023-07-29T13:24:13;6.88;;;1.60;;
62338;SDS011;48368;53.406;6.214;2023-07-29T13:26:39;6.68;;;1.63;;
62338;SDS011;48368;53.406;6.214;2023-07-29T13:29:04;6.38;;;1.98;;
62338;SDS011;48368;53.406;6.214;2023-07-29T13:31:30;5.93;;;2.03;;
62338;SDS011;48368;53.406;6.214;2023-07-29T13:33:56;5.68;;;1.67;;
62338;SDS011;48368;53.406;6.214;2023-07-29T13:36:21;4.18;;;1.52;;
62338;SDS011;48368;53.406;6.214;2023-07-29T13:38:47;6.10;;;1.77;;
62338;SDS011;48368;53.406;6.214;2023-07-29T13:41:12;5.55;;;1.95;;
62338;SDS011;48368;53.406;6.214;2023-07-29T13:43:38;6.95;;;1.67;;
62338;SDS011;48368;53.406;6.214;2023-07-29T13:46:04;6.75;;;2.03;;
62338;SDS011;48368;53.406;6.214;2023-07-29T13:48:29;5.45;;;2.03;;
62338;SDS011;48368;53.406;6.214;2023-07-29T13:50:55;8.10;;;1.77;;
62338;SDS011;48368;53.406;6.214;2023-07-29T13:53:20;6.00;;;2.05;;
62338;SDS011;48368;53.406;6.214;2023-07-29T13:55:46;5.65;;;1.75;;
62338;SDS011;48368;53.406;6.214;2023-07-29T13:58:12;7.10;;;2.10;;
62338;SDS011;48368;53.406;6.214;2023-07-29T14:00:37;5.57;;;1.60;;
62338;SDS011;48368;53.406;6.214;2023-07-29T14:03:03;6.22;;;2.10;;
62338;SDS011;48368;53.406;6.214;2023-07-29T14:05:29;4.30;;;2.05;;
62338;SDS011;48368;53.406;6.214;2023-07-29T14:07:57;7.20;;;1.77;;
62338;SDS011;48368;53.406;6.214;2023-07-29T14:10:23;6.15;;;2.10;;
62338;SDS011;48368;53.406;6.214;2023-07-29T14:12:49;6.25;;;1.80;;
62338;SDS011;48368;53.406;6.214;2023-07-29T14:15:15;4.35;;;1.92;;
62338;SDS011;48368;53.406;6.214;2023-07-29T14:17:43;6.32;;;1.92;;
62338;SDS011;48368;53.406;6.214;2023-07-29T14:20:09;5.45;;;1.95;;
62338;SDS011;48368;53.406;6.214;2023-07-29T14:22:35;6.97;;;2.28;;
62338;SDS011;48368;53.406;6.214;2023-07-29T14:25:01;6.57;;;2.47;;
62338;SDS011;48368;53.406;6.214;2023-07-29T14:27:27;8.88;;;2.00;;
62338;SDS011;48368;53.406;6.214;2023-07-29T14:29:52;5.05;;;1.95;;
62338;SDS011;48368;53.406;6.214;2023-07-29T14:32:18;9.15;;;2.28;;
62338;SDS011;48368;53.406;6.214;2023-07-29T14:34:44;5.53;;;2.00;;
62338;SDS011;48368;53.406;6.214;2023-07-29T14:37:09;6.45;;;2.30;;
62338;SDS011;48368;53.406;6.214;2023-07-29T14:39:35;5.35;;;2.28;;
62338;SDS011;48368;53.406;6.214;2023-07-29T14:42:00;6.35;;;2.13;;
62338;SDS011;48368;53.406;6.214;2023-07-29T14:44:26;5.63;;;1.85;;
62338;SDS011;48368;53.406;6.214;2023-07-29T14:46:52;7.55;;;2.15;;
62338;SDS011;48368;53.406;6.214;2023-07-29T14:49:18;4.18;;;1.67;;
62338;SDS011;48368;53.406;6.214;2023-07-29T14:51:44;5.32;;;1.90;;
62338;SDS011;48368;53.406;6.214;2023-07-29T14:54:09;5.47;;;1.90;;
62338;SDS011;48368;53.406;6.214;2023-07-29T14:56:38;5.28;;;1.80;;
62338;SDS011;48368;53.406;6.214;2023-07-29T14:59:03;6.63;;;2.00;;
62338;SDS011;48368;53.406;6.214;2023-07-29T15:01:29;5.20;;;1.90;;
62338;SDS011;48368;53.406;6.214;2023-07-29T15:03:54;5.47;;;2.08;;
62338;SDS011;48368;53.406;6.214;2023-07-29T15:06:20;6.40;;;2.30;;
62338;SDS011;48368;53.406;6.214;2023-07-29T15:08:46;7.07;;;2.00;;